createdAt,value
2022-08-25T00:00:48.249Z,1013.15
2022-08-25T00:01:48.208Z,1013.15
2022-08-25T00:02:56.493Z,1013.11
2022-08-25T00:03:48.187Z,1013.13
2022-08-25T00:04:53.834Z,1013.13
2022-08-25T00:05:48.222Z,1013.18
2022-08-25T00:06:48.139Z,1013.14
2022-08-25T00:07:48.135Z,1013.15
2022-08-25T00:08:48.115Z,1013.14
2022-08-25T00:09:48.104Z,1013.19
2022-08-25T00:11:02.896Z,1013.17
2022-08-25T00:11:48.070Z,1013.19
2022-08-25T00:12:48.077Z,1013.20
2022-08-25T00:13:48.041Z,1013.19
2022-08-25T00:14:48.028Z,1013.17
2022-08-25T00:15:48.070Z,1013.20
2022-08-25T00:16:48.003Z,1013.20
2022-08-25T00:17:47.983Z,1013.21
2022-08-25T00:18:47.987Z,1013.16
2022-08-25T00:19:47.973Z,1013.17
2022-08-25T00:20:49.071Z,1013.18
2022-08-25T00:21:47.933Z,1013.16
2022-08-25T00:22:47.917Z,1013.20
2022-08-25T00:23:47.953Z,1013.19
2022-08-25T00:24:47.888Z,1013.21
2022-08-25T00:25:47.875Z,1013.24
2022-08-25T00:26:47.863Z,1013.23
2022-08-25T00:27:47.865Z,1013.25
2022-08-25T00:28:47.831Z,1013.24
2022-08-25T00:29:47.849Z,1013.20
2022-08-25T00:30:47.838Z,1013.24
2022-08-25T00:31:47.792Z,1013.25
2022-08-25T00:32:55.340Z,1013.26
2022-08-25T00:33:47.783Z,1013.25
2022-08-25T00:34:47.764Z,1013.27
2022-08-25T00:35:47.735Z,1013.27
2022-08-25T00:36:47.721Z,1013.28
2022-08-25T00:37:47.710Z,1013.27
2022-08-25T00:38:47.694Z,1013.29
2022-08-25T00:39:47.764Z,1013.33
2022-08-25T00:40:47.668Z,1013.30
2022-08-25T00:41:47.658Z,1013.31
2022-08-25T00:42:47.636Z,1013.34
2022-08-25T00:43:47.624Z,1013.33
2022-08-25T00:44:47.607Z,1013.33
2022-08-25T00:45:47.617Z,1013.32
2022-08-25T00:46:47.582Z,1013.34
2022-08-25T00:47:47.568Z,1013.36
2022-08-25T00:48:47.552Z,1013.35
2022-08-25T00:49:47.537Z,1013.33
2022-08-25T00:50:47.543Z,1013.37
2022-08-25T00:51:47.512Z,1013.34
2022-08-25T00:52:47.496Z,1013.35
2022-08-25T00:53:47.483Z,1013.35
2022-08-25T00:54:47.463Z,1013.34
2022-08-25T00:55:47.466Z,1013.33
2022-08-25T00:56:47.457Z,1013.33
2022-08-25T00:57:47.433Z,1013.34
2022-08-25T00:58:47.415Z,1013.36
2022-08-25T00:59:47.390Z,1013.37
2022-08-25T01:00:47.386Z,1013.38
2022-08-25T01:01:47.419Z,1013.39
2022-08-25T01:02:47.420Z,1013.35
2022-08-25T01:03:47.337Z,1013.33
2022-08-25T01:04:47.732Z,1013.31
2022-08-25T01:05:47.311Z,1013.32
2022-08-25T01:06:47.323Z,1013.30
2022-08-25T01:07:47.297Z,1013.30
2022-08-25T01:08:47.286Z,1013.33
2022-08-25T01:09:47.249Z,1013.34
2022-08-25T01:10:47.258Z,1013.32
2022-08-25T01:11:47.229Z,1013.32
2022-08-25T01:12:47.228Z,1013.32
2022-08-25T01:13:47.218Z,1013.33
2022-08-25T01:14:47.183Z,1013.33
2022-08-25T01:15:47.256Z,1013.30
2022-08-25T01:16:47.166Z,1013.29
2022-08-25T01:17:47.152Z,1013.30
2022-08-25T01:18:47.141Z,1013.29
2022-08-25T01:19:47.111Z,1013.30
2022-08-25T01:20:47.095Z,1013.30
2022-08-25T01:21:47.080Z,1013.31
2022-08-25T01:22:50.880Z,1013.27
2022-08-25T01:23:47.063Z,1013.27
2022-08-25T01:24:47.037Z,1013.28
2022-08-25T01:25:47.041Z,1013.26
2022-08-25T01:26:47.009Z,1013.27
2022-08-25T01:27:46.996Z,1013.27
2022-08-25T01:28:46.972Z,1013.29
2022-08-25T01:29:47.059Z,1013.28
2022-08-25T01:30:47.020Z,1013.30
2022-08-25T01:31:46.931Z,1013.33
2022-08-25T01:32:46.914Z,1013.31
2022-08-25T01:33:46.903Z,1013.34
2022-08-25T01:34:46.941Z,1013.34
2022-08-25T01:35:46.872Z,1013.30
2022-08-25T01:36:46.857Z,1013.30
2022-08-25T01:37:46.846Z,1013.30
2022-08-25T01:38:46.865Z,1013.30
2022-08-25T01:39:46.843Z,1013.31
2022-08-25T01:40:46.819Z,1013.31
2022-08-25T01:41:46.797Z,1013.29
2022-08-25T01:42:46.769Z,1013.28
2022-08-25T01:43:46.759Z,1013.28
2022-08-25T01:44:46.745Z,1013.26
2022-08-25T01:45:46.806Z,1013.24
2022-08-25T01:46:46.711Z,1013.30
2022-08-25T01:47:46.700Z,1013.30
2022-08-25T01:48:46.680Z,1013.26
2022-08-25T01:49:46.668Z,1013.29
2022-08-25T01:50:46.666Z,1013.29
2022-08-25T01:51:46.641Z,1013.29
2022-08-25T01:52:46.624Z,1013.28
2022-08-25T01:53:46.627Z,1013.25
2022-08-25T01:54:46.594Z,1013.28
2022-08-25T01:55:46.582Z,1013.29
2022-08-25T01:56:46.562Z,1013.31
2022-08-25T01:57:46.570Z,1013.31
2022-08-25T01:58:46.529Z,1013.32
2022-08-25T01:59:46.515Z,1013.29
2022-08-25T02:00:46.511Z,1013.32
2022-08-25T02:01:46.547Z,1013.35
2022-08-25T02:02:46.521Z,1013.30
2022-08-25T02:03:46.511Z,1013.28
2022-08-25T02:04:46.439Z,1013.31
2022-08-25T02:05:48.077Z,1013.31
2022-08-25T02:06:46.415Z,1013.32
2022-08-25T02:07:46.415Z,1013.32
2022-08-25T02:08:46.380Z,1013.33
2022-08-25T02:09:46.364Z,1013.31
2022-08-25T02:10:46.365Z,1013.33
2022-08-25T02:11:46.341Z,1013.33
2022-08-25T02:12:46.318Z,1013.33
2022-08-25T02:13:46.319Z,1013.33
2022-08-25T02:14:46.306Z,1013.31
2022-08-25T02:15:46.289Z,1013.33
2022-08-25T02:16:46.277Z,1013.35
2022-08-25T02:17:46.242Z,1013.34
2022-08-25T02:18:46.224Z,1013.33
2022-08-25T02:19:46.217Z,1013.34
2022-08-25T02:20:46.210Z,1013.30
2022-08-25T02:21:46.182Z,1013.32
2022-08-25T02:22:56.553Z,1013.31
2022-08-25T02:23:46.152Z,1013.34
2022-08-25T02:24:46.143Z,1013.28
2022-08-25T02:25:46.143Z,1013.29
2022-08-25T02:26:46.103Z,1013.32
2022-08-25T02:27:46.089Z,1013.29
2022-08-25T02:28:46.073Z,1013.26
2022-08-25T02:29:46.056Z,1013.26
2022-08-25T02:30:46.111Z,1013.24
2022-08-25T02:31:46.024Z,1013.25
2022-08-25T02:32:46.012Z,1013.27
2022-08-25T02:33:45.997Z,1013.26
2022-08-25T02:34:45.991Z,1013.27
2022-08-25T02:35:45.966Z,1013.23
2022-08-25T02:36:45.991Z,1013.25
2022-08-25T02:37:45.937Z,1013.26
2022-08-25T02:38:45.921Z,1013.28
2022-08-25T02:39:45.944Z,1013.30
2022-08-25T02:40:45.891Z,1013.31
2022-08-25T02:41:45.894Z,1013.26
2022-08-25T02:42:45.865Z,1013.28
2022-08-25T02:43:45.844Z,1013.28
2022-08-25T02:44:45.828Z,1013.27
2022-08-25T02:45:45.846Z,1013.25
2022-08-25T02:46:45.793Z,1013.25
2022-08-25T02:47:45.789Z,1013.20
2022-08-25T02:48:45.763Z,1013.23
2022-08-25T02:49:45.746Z,1013.21
2022-08-25T02:50:45.729Z,1013.18
2022-08-25T02:51:45.714Z,1013.18
2022-08-25T02:52:45.715Z,1013.21
2022-08-25T02:53:45.698Z,1013.19
2022-08-25T02:54:45.673Z,1013.19
2022-08-25T02:55:45.670Z,1013.18
2022-08-25T02:56:45.633Z,1013.17
2022-08-25T02:57:45.629Z,1013.19
2022-08-25T02:58:45.628Z,1013.13
2022-08-25T02:59:45.586Z,1013.15
2022-08-25T03:00:45.580Z,1013.11
2022-08-25T03:01:45.556Z,1013.10
2022-08-25T03:02:45.541Z,1013.10
2022-08-25T03:03:45.570Z,1013.08
2022-08-25T03:04:45.569Z,1013.04
2022-08-25T03:05:45.491Z,1013.03
2022-08-25T03:06:45.475Z,1012.98
2022-08-25T03:07:45.464Z,1012.98
2022-08-25T03:08:45.450Z,1012.97
2022-08-25T03:09:45.444Z,1012.99
2022-08-25T03:10:45.420Z,1012.99
2022-08-25T03:11:45.410Z,1012.96
2022-08-25T03:12:45.380Z,1012.97
2022-08-25T03:13:45.364Z,1012.97
2022-08-25T03:14:45.365Z,1012.94
2022-08-25T03:15:45.353Z,1012.95
2022-08-25T03:16:46.388Z,1012.94
2022-08-25T03:17:45.645Z,1012.92
2022-08-25T03:18:45.303Z,1012.94
2022-08-25T03:19:45.273Z,1012.91
2022-08-25T03:20:45.258Z,1012.89
2022-08-25T03:21:45.267Z,1012.92
2022-08-25T03:22:45.246Z,1012.89
2022-08-25T03:23:45.216Z,1012.90
2022-08-25T03:24:45.194Z,1012.88
2022-08-25T03:25:45.177Z,1012.86
2022-08-25T03:26:45.163Z,1012.90
2022-08-25T03:27:45.145Z,1012.86
2022-08-25T03:28:45.151Z,1012.83
2022-08-25T03:29:45.119Z,1012.86
2022-08-25T03:30:45.094Z,1012.81
2022-08-25T03:31:45.148Z,1012.82
2022-08-25T03:32:45.071Z,1012.78
2022-08-25T03:33:45.062Z,1012.82
2022-08-25T03:34:45.036Z,1012.82
2022-08-25T03:35:45.022Z,1012.85
2022-08-25T03:36:45.039Z,1012.82
2022-08-25T03:37:44.987Z,1012.81
2022-08-25T03:38:44.979Z,1012.84
2022-08-25T03:39:45.007Z,1012.85
2022-08-25T03:40:44.943Z,1012.86
2022-08-25T03:41:44.930Z,1012.87
2022-08-25T03:42:45.295Z,1012.88
2022-08-25T03:43:44.906Z,1012.88
2022-08-25T03:44:44.882Z,1012.88
2022-08-25T03:45:44.917Z,1012.86
2022-08-25T03:46:44.851Z,1012.86
2022-08-25T03:47:44.855Z,1012.84
2022-08-25T03:48:44.837Z,1012.85
2022-08-25T03:49:44.804Z,1012.86
2022-08-25T03:50:44.789Z,1012.87
2022-08-25T03:51:44.774Z,1012.86
2022-08-25T03:52:44.764Z,1012.88
2022-08-25T03:53:44.770Z,1012.83
2022-08-25T03:54:44.759Z,1012.80
2022-08-25T03:55:44.716Z,1012.82
2022-08-25T03:56:44.716Z,1012.77
2022-08-25T03:57:44.682Z,1012.75
2022-08-25T03:58:44.680Z,1012.71
2022-08-25T03:59:44.669Z,1012.70
2022-08-25T04:00:44.713Z,1012.70
2022-08-25T04:01:44.620Z,1012.64
2022-08-25T04:02:44.694Z,1012.63
2022-08-25T04:03:44.588Z,1012.64
2022-08-25T04:04:44.570Z,1012.58
2022-08-25T04:05:44.579Z,1012.59
2022-08-25T04:06:44.549Z,1012.54
2022-08-25T04:07:44.547Z,1012.55
2022-08-25T04:08:44.511Z,1012.52
2022-08-25T04:09:44.498Z,1012.48
2022-08-25T04:10:44.479Z,1012.51
2022-08-25T04:11:44.492Z,1012.47
2022-08-25T04:12:44.448Z,1012.54
2022-08-25T04:13:44.433Z,1012.51
2022-08-25T04:14:44.427Z,1012.51
2022-08-25T04:15:44.420Z,1012.52
2022-08-25T04:16:44.500Z,1012.54
2022-08-25T04:17:44.421Z,1012.54
2022-08-25T04:18:44.352Z,1012.53
2022-08-25T04:19:44.343Z,1012.51
2022-08-25T04:20:46.762Z,1012.52
2022-08-25T04:21:44.310Z,1012.55
2022-08-25T04:22:45.137Z,1012.55
2022-08-25T04:23:44.278Z,1012.54
2022-08-25T04:24:44.266Z,1012.56
2022-08-25T04:25:46.138Z,1012.55
2022-08-25T04:26:44.234Z,1012.57
2022-08-25T04:27:44.212Z,1012.59
2022-08-25T04:28:44.219Z,1012.58
2022-08-25T04:29:44.180Z,1012.59
2022-08-25T04:30:44.188Z,1012.58
2022-08-25T04:31:44.227Z,1012.55
2022-08-25T04:32:44.143Z,1012.58
2022-08-25T04:33:44.122Z,1012.58
2022-08-25T04:34:44.104Z,1012.64
2022-08-25T04:35:44.087Z,1012.62
2022-08-25T04:36:44.094Z,1012.63
2022-08-25T04:37:44.065Z,1012.62
2022-08-25T04:38:44.050Z,1012.61
2022-08-25T04:39:44.099Z,1012.63
2022-08-25T04:40:44.014Z,1012.62
2022-08-25T04:41:44.014Z,1012.60
2022-08-25T04:42:44.079Z,1012.65
2022-08-25T04:43:43.963Z,1012.63
2022-08-25T04:44:43.953Z,1012.63
2022-08-25T04:45:44.010Z,1012.64
2022-08-25T04:46:43.920Z,1012.61
2022-08-25T04:47:43.920Z,1012.67
2022-08-25T04:48:43.909Z,1012.63
2022-08-25T04:49:43.870Z,1012.62
2022-08-25T04:50:43.862Z,1012.63
2022-08-25T04:51:43.867Z,1012.60
2022-08-25T04:52:43.842Z,1012.65
2022-08-25T04:53:43.808Z,1012.64
2022-08-25T04:54:43.795Z,1012.66
2022-08-25T04:55:43.775Z,1012.62
2022-08-25T04:56:43.779Z,1012.61
2022-08-25T04:57:43.756Z,1012.62
2022-08-25T04:58:43.757Z,1012.61
2022-08-25T04:59:43.718Z,1012.59
2022-08-25T05:00:43.798Z,1012.58
2022-08-25T05:01:43.695Z,1012.57
2022-08-25T05:02:43.668Z,1012.53
2022-08-25T05:03:43.685Z,1012.55
2022-08-25T05:04:43.680Z,1012.54
2022-08-25T05:05:43.645Z,1012.53
2022-08-25T05:06:43.609Z,1012.54
2022-08-25T05:07:43.633Z,1012.52
2022-08-25T05:08:45.776Z,1012.52
2022-08-25T05:09:43.595Z,1012.50
2022-08-25T05:10:43.543Z,1012.54
2022-08-25T05:11:43.534Z,1012.52
2022-08-25T05:12:43.539Z,1012.58
2022-08-25T05:13:43.503Z,1012.58
2022-08-25T05:14:43.486Z,1012.57
2022-08-25T05:15:43.476Z,1012.56
2022-08-25T05:16:43.488Z,1012.58
2022-08-25T05:17:43.464Z,1012.57
2022-08-25T05:18:43.427Z,1012.58
2022-08-25T05:19:43.409Z,1012.61
2022-08-25T05:20:43.397Z,1012.58
2022-08-25T05:21:43.394Z,1012.57
2022-08-25T05:22:43.364Z,1012.54
2022-08-25T05:23:43.370Z,1012.57
2022-08-25T05:24:43.348Z,1012.55
2022-08-25T05:25:43.329Z,1012.55
2022-08-25T05:26:43.301Z,1012.53
2022-08-25T05:27:43.283Z,1012.52
2022-08-25T05:28:43.276Z,1012.53
2022-08-25T05:29:43.273Z,1012.49
2022-08-25T05:30:43.249Z,1012.50
2022-08-25T05:31:47.110Z,1012.51
2022-08-25T05:32:43.212Z,1012.48
2022-08-25T05:33:43.190Z,1012.50
2022-08-25T05:34:43.180Z,1012.49
2022-08-25T05:35:43.178Z,1012.46
2022-08-25T05:36:43.242Z,1012.50
2022-08-25T05:37:43.136Z,1012.46
2022-08-25T05:38:43.130Z,1012.46
2022-08-25T05:39:43.123Z,1012.42
2022-08-25T05:40:43.090Z,1012.42
2022-08-25T05:41:43.067Z,1012.38
2022-08-25T05:42:43.055Z,1012.42
2022-08-25T05:43:43.040Z,1012.38
2022-08-25T05:44:43.046Z,1012.37
2022-08-25T05:45:43.043Z,1012.40
2022-08-25T05:46:42.993Z,1012.38
2022-08-25T05:47:42.978Z,1012.34
2022-08-25T05:48:42.982Z,1012.36
2022-08-25T05:49:42.956Z,1012.34
2022-08-25T05:50:42.932Z,1012.35
2022-08-25T05:51:42.917Z,1012.33
2022-08-25T05:52:42.928Z,1012.34
2022-08-25T05:53:42.887Z,1012.29
2022-08-25T05:54:42.873Z,1012.31
2022-08-25T05:55:42.854Z,1012.32
2022-08-25T05:56:42.843Z,1012.28
2022-08-25T05:57:42.830Z,1012.29
2022-08-25T05:58:42.829Z,1012.28
2022-08-25T05:59:42.797Z,1012.32
2022-08-25T06:00:42.829Z,1012.34
2022-08-25T06:01:43.527Z,1012.33
2022-08-25T06:02:42.748Z,1012.33
2022-08-25T06:03:42.823Z,1012.35
2022-08-25T06:04:42.758Z,1012.38
2022-08-25T06:05:42.723Z,1012.38
2022-08-25T06:06:42.707Z,1012.38
2022-08-25T06:07:42.693Z,1012.40
2022-08-25T06:08:42.658Z,1012.42
2022-08-25T06:09:42.642Z,1012.41
2022-08-25T06:10:42.628Z,1012.41
2022-08-25T06:11:42.635Z,1012.44
2022-08-25T06:12:42.612Z,1012.42
2022-08-25T06:13:42.581Z,1012.42
2022-08-25T06:14:42.574Z,1012.41
2022-08-25T06:15:42.570Z,1012.41
2022-08-25T06:16:42.592Z,1012.39
2022-08-25T06:17:42.539Z,1012.39
2022-08-25T06:18:42.504Z,1012.38
2022-08-25T06:19:42.496Z,1012.35
2022-08-25T06:20:42.484Z,1012.35
2022-08-25T06:21:42.547Z,1012.39
2022-08-25T06:22:42.450Z,1012.36
2022-08-25T06:23:42.447Z,1012.40
2022-08-25T06:24:42.429Z,1012.42
2022-08-25T06:25:42.423Z,1012.44
2022-08-25T06:26:45.061Z,1012.45
2022-08-25T06:27:42.397Z,1012.47
2022-08-25T06:28:42.364Z,1012.46
2022-08-25T06:29:42.347Z,1012.47
2022-08-25T06:30:42.350Z,1012.47
2022-08-25T06:31:42.427Z,1012.47
2022-08-25T06:32:42.299Z,1012.48
2022-08-25T06:33:42.288Z,1012.51
2022-08-25T06:34:42.276Z,1012.51
2022-08-25T06:35:42.266Z,1012.57
2022-08-25T06:36:42.267Z,1012.57
2022-08-25T06:37:42.239Z,1012.56
2022-08-25T06:38:42.221Z,1012.58
2022-08-25T06:39:42.214Z,1012.57
2022-08-25T06:40:42.178Z,1012.57
2022-08-25T06:41:42.174Z,1012.59
2022-08-25T06:42:42.149Z,1012.56
2022-08-25T06:43:47.399Z,1012.53
2022-08-25T06:44:42.133Z,1012.57
2022-08-25T06:45:42.126Z,1012.56
2022-08-25T06:46:42.109Z,1012.56
2022-08-25T06:47:42.092Z,1012.59
2022-08-25T06:48:42.076Z,1012.60
2022-08-25T06:49:42.068Z,1012.58
2022-08-25T06:50:42.032Z,1012.61
2022-08-25T06:51:42.019Z,1012.64
2022-08-25T06:52:42.010Z,1012.63
2022-08-25T06:53:41.999Z,1012.65
2022-08-25T06:54:41.973Z,1012.63
2022-08-25T06:55:41.980Z,1012.67
2022-08-25T06:56:41.955Z,1012.64
2022-08-25T06:57:41.943Z,1012.60
2022-08-25T06:58:41.932Z,1012.62
2022-08-25T06:59:41.904Z,1012.59
2022-08-25T07:00:41.981Z,1012.59
2022-08-25T07:01:41.985Z,1012.60
2022-08-25T07:02:41.915Z,1012.60
2022-08-25T07:03:41.845Z,1012.56
2022-08-25T07:04:41.832Z,1012.59
2022-08-25T07:05:43.761Z,1012.58
2022-08-25T07:06:41.801Z,1012.59
2022-08-25T07:07:43.123Z,1012.62
2022-08-25T07:08:41.773Z,1012.59
2022-08-25T07:09:41.772Z,1012.55
2022-08-25T07:10:41.742Z,1012.59
2022-08-25T07:11:41.728Z,1012.59
2022-08-25T07:12:41.713Z,1012.58
2022-08-25T07:13:41.697Z,1012.61
2022-08-25T07:14:44.271Z,1012.56
2022-08-25T07:15:41.685Z,1012.54
2022-08-25T07:16:42.457Z,1012.53
2022-08-25T07:17:41.635Z,1012.51
2022-08-25T07:18:41.627Z,1012.51
2022-08-25T07:19:41.607Z,1012.52
2022-08-25T07:20:41.614Z,1012.50
2022-08-25T07:21:41.614Z,1012.50
2022-08-25T07:22:41.575Z,1012.52
2022-08-25T07:23:41.567Z,1012.53
2022-08-25T07:24:41.539Z,1012.55
2022-08-25T07:25:41.524Z,1012.58
2022-08-25T07:26:41.510Z,1012.56
2022-08-25T07:27:42.324Z,1012.56
2022-08-25T07:28:47.464Z,1012.57
2022-08-25T07:29:42.695Z,1012.55
2022-08-25T07:30:41.462Z,1012.57
2022-08-25T07:31:41.636Z,1012.57
2022-08-25T07:32:43.036Z,1012.53
2022-08-25T07:33:41.431Z,1012.53
2022-08-25T07:34:41.399Z,1012.51
2022-08-25T07:35:41.387Z,1012.54
2022-08-25T07:36:41.377Z,1012.57
2022-08-25T07:37:49.794Z,1012.57
2022-08-25T07:38:41.341Z,1012.56
2022-08-25T07:39:41.345Z,1012.51
2022-08-25T07:40:42.750Z,1012.49
2022-08-25T07:41:41.304Z,1012.49
2022-08-25T07:42:41.283Z,1012.47
2022-08-25T07:43:41.266Z,1012.44
2022-08-25T07:44:41.283Z,1012.45
2022-08-25T07:45:46.795Z,1012.44
2022-08-25T07:46:41.278Z,1012.44
2022-08-25T07:47:41.218Z,1012.45
2022-08-25T07:48:41.223Z,1012.45
2022-08-25T07:49:41.188Z,1012.51
2022-08-25T07:50:41.194Z,1012.51
2022-08-25T07:51:44.142Z,1012.50
2022-08-25T07:52:41.144Z,1012.53
2022-08-25T07:53:41.127Z,1012.59
2022-08-25T07:54:41.130Z,1012.59
2022-08-25T07:55:41.128Z,1012.56
2022-08-25T07:56:41.120Z,1012.56
2022-08-25T07:57:41.083Z,1012.59
2022-08-25T07:58:41.062Z,1012.56
2022-08-25T07:59:41.049Z,1012.50
2022-08-25T08:00:42.387Z,1012.49
2022-08-25T08:01:41.034Z,1012.50
2022-08-25T08:02:41.022Z,1012.48
2022-08-25T08:03:50.557Z,1012.45
2022-08-25T08:04:40.984Z,1012.44
2022-08-25T08:05:40.964Z,1012.40
2022-08-25T08:06:40.970Z,1012.43
2022-08-25T08:07:43.604Z,1012.44
2022-08-25T08:08:40.926Z,1012.47
2022-08-25T08:09:40.915Z,1012.50
2022-08-25T08:11:04.088Z,1012.47
2022-08-25T08:11:45.116Z,1012.47
2022-08-25T08:12:40.893Z,1012.47
2022-08-25T08:13:41.591Z,1012.42
2022-08-25T08:14:45.124Z,1012.39
2022-08-25T08:15:40.891Z,1012.36
2022-08-25T08:16:40.814Z,1012.35
2022-08-25T08:17:40.820Z,1012.29
2022-08-25T08:18:40.790Z,1012.31
2022-08-25T08:19:44.927Z,1012.25
2022-08-25T08:20:42.721Z,1012.28
2022-08-25T08:21:40.753Z,1012.24
2022-08-25T08:22:40.754Z,1012.25
2022-08-25T08:23:40.717Z,1012.26
2022-08-25T08:24:44.441Z,1012.27
2022-08-25T08:25:40.703Z,1012.27
2022-08-25T08:26:57.735Z,1012.26
2022-08-25T08:27:40.665Z,1012.29
2022-08-25T08:28:40.677Z,1012.25
2022-08-25T08:29:40.640Z,1012.25
2022-08-25T08:30:40.623Z,1012.27
2022-08-25T08:31:40.693Z,1012.25
2022-08-25T08:33:06.390Z,1012.24
2022-08-25T08:33:41.069Z,1012.22
2022-08-25T08:34:40.571Z,1012.22
2022-08-25T08:35:40.563Z,1012.20
2022-08-25T08:36:40.546Z,1012.18
2022-08-25T08:37:40.540Z,1012.18
2022-08-25T08:38:40.607Z,1012.22
2022-08-25T08:39:40.523Z,1012.21
2022-08-25T08:40:40.491Z,1012.16
2022-08-25T08:42:09.652Z,1012.18
2022-08-25T08:42:40.467Z,1012.17
2022-08-25T08:43:40.458Z,1012.17
2022-08-25T08:44:40.460Z,1012.15
2022-08-25T08:45:43.960Z,1012.16
2022-08-25T08:46:40.464Z,1012.16
2022-08-25T08:47:40.402Z,1012.14
2022-08-25T08:48:40.408Z,1012.19
2022-08-25T08:49:40.410Z,1012.17
2022-08-25T08:50:40.377Z,1012.17
2022-08-25T08:51:40.459Z,1012.14
2022-08-25T08:52:40.338Z,1012.15
2022-08-25T08:53:40.324Z,1012.13
2022-08-25T08:54:41.346Z,1012.11
2022-08-25T08:55:40.306Z,1012.07
2022-08-25T08:56:45.249Z,1012.07
2022-08-25T08:57:40.299Z,1012.04
2022-08-25T08:58:40.260Z,1012.02
2022-08-25T08:59:40.238Z,1012.06
2022-08-25T09:00:40.256Z,1011.99
2022-08-25T09:01:40.253Z,1011.97
2022-08-25T09:02:50.516Z,1011.93
2022-08-25T09:03:40.243Z,1011.96
2022-08-25T09:04:40.190Z,1011.93
2022-08-25T09:05:44.925Z,1011.94
2022-08-25T09:06:40.174Z,1011.96
2022-08-25T09:07:42.086Z,1011.92
2022-08-25T09:08:44.461Z,1011.95
2022-08-25T09:09:40.122Z,1011.98
2022-08-25T09:10:40.112Z,1011.97
2022-08-25T09:11:40.108Z,1011.91
2022-08-25T09:12:40.124Z,1011.94
2022-08-25T09:13:40.071Z,1011.95
2022-08-25T09:14:40.058Z,1011.93
2022-08-25T09:15:41.284Z,1011.90
2022-08-25T09:16:40.088Z,1011.92
2022-08-25T09:17:40.019Z,1011.93
2022-08-25T09:18:41.090Z,1011.90
2022-08-25T09:19:42.032Z,1011.91
2022-08-25T09:20:39.991Z,1011.89
2022-08-25T09:21:39.973Z,1011.90
2022-08-25T09:22:39.979Z,1011.93
2022-08-25T09:23:39.962Z,1011.90
2022-08-25T09:24:39.966Z,1011.91
2022-08-25T09:25:52.983Z,1011.88
2022-08-25T09:26:39.916Z,1011.87
2022-08-25T09:27:39.900Z,1011.89
2022-08-25T09:28:39.902Z,1011.90
2022-08-25T09:29:39.900Z,1011.85
2022-08-25T09:30:39.862Z,1011.85
2022-08-25T09:31:39.889Z,1011.90
2022-08-25T09:32:39.833Z,1011.83
2022-08-25T09:33:39.845Z,1011.87
2022-08-25T09:34:39.830Z,1011.89
2022-08-25T09:35:39.827Z,1011.88
2022-08-25T09:36:39.792Z,1011.86
2022-08-25T09:37:39.781Z,1011.86
2022-08-25T09:38:39.763Z,1011.89
2022-08-25T09:39:39.875Z,1011.89
2022-08-25T09:40:39.742Z,1011.89
2022-08-25T09:41:39.735Z,1011.91
2022-08-25T09:42:39.738Z,1011.93
2022-08-25T09:43:39.714Z,1011.90
2022-08-25T09:44:39.716Z,1011.89
2022-08-25T09:45:39.700Z,1011.89
2022-08-25T09:46:39.719Z,1011.91
2022-08-25T09:47:39.670Z,1011.94
2022-08-25T09:48:41.022Z,1011.91
2022-08-25T09:49:39.669Z,1011.82
2022-08-25T09:50:43.940Z,1011.91
2022-08-25T09:51:42.780Z,1011.87
2022-08-25T09:52:41.181Z,1011.88
2022-08-25T09:53:39.612Z,1011.84
2022-08-25T09:54:44.260Z,1011.86
2022-08-25T09:55:39.622Z,1011.92
2022-08-25T09:56:39.601Z,1011.89
2022-08-25T09:57:39.577Z,1011.86
2022-08-25T09:58:39.574Z,1011.85
2022-08-25T09:59:39.562Z,1011.85
2022-08-25T10:00:39.574Z,1011.81
2022-08-25T10:01:39.601Z,1011.79
2022-08-25T10:02:39.546Z,1011.79
2022-08-25T10:03:39.545Z,1011.84
2022-08-25T10:04:40.018Z,1011.80
2022-08-25T10:05:39.559Z,1011.82
2022-08-25T10:06:39.526Z,1011.82
2022-08-25T10:07:39.504Z,1011.80
2022-08-25T10:08:39.648Z,1011.83
2022-08-25T10:09:39.494Z,1011.79
2022-08-25T10:10:41.966Z,1011.80
2022-08-25T10:11:39.499Z,1011.76
2022-08-25T10:12:42.825Z,1011.76
2022-08-25T10:13:39.472Z,1011.71
2022-08-25T10:14:44.209Z,1011.74
2022-08-25T10:15:39.489Z,1011.71
2022-08-25T10:16:39.545Z,1011.72
2022-08-25T10:17:39.463Z,1011.73
2022-08-25T10:18:39.447Z,1011.72
2022-08-25T10:19:39.503Z,1011.71
2022-08-25T10:20:44.390Z,1011.70
2022-08-25T10:21:39.425Z,1011.69
2022-08-25T10:22:39.418Z,1011.65
2022-08-25T10:23:39.418Z,1011.67
2022-08-25T10:24:39.411Z,1011.62
2022-08-25T10:25:39.851Z,1011.59
2022-08-25T10:26:39.410Z,1011.60
2022-08-25T10:27:39.395Z,1011.56
2022-08-25T10:28:39.405Z,1011.55
2022-08-25T10:29:40.947Z,1011.51
2022-08-25T10:30:39.400Z,1011.52
2022-08-25T10:31:41.500Z,1011.50
2022-08-25T10:32:39.380Z,1011.50
2022-08-25T10:33:39.384Z,1011.49
2022-08-25T10:34:39.363Z,1011.44
2022-08-25T10:35:39.373Z,1011.45
2022-08-25T10:36:39.352Z,1011.45
2022-08-25T10:37:39.352Z,1011.42
2022-08-25T10:38:39.345Z,1011.37
2022-08-25T10:39:40.761Z,1011.40
2022-08-25T10:40:39.412Z,1011.38
2022-08-25T10:41:39.323Z,1011.39
2022-08-25T10:42:39.344Z,1011.34
2022-08-25T10:43:39.345Z,1011.35
2022-08-25T10:44:39.309Z,1011.35
2022-08-25T10:45:39.320Z,1011.39
2022-08-25T10:46:39.332Z,1011.35
2022-08-25T10:47:39.298Z,1011.36
2022-08-25T10:48:39.295Z,1011.33
2022-08-25T10:49:39.288Z,1011.31
2022-08-25T10:50:39.291Z,1011.28
2022-08-25T10:51:39.307Z,1011.25
2022-08-25T10:52:39.282Z,1011.23
2022-08-25T10:53:39.270Z,1011.24
2022-08-25T10:54:39.286Z,1011.20
2022-08-25T10:55:40.275Z,1011.19
2022-08-25T10:56:40.938Z,1011.17
2022-08-25T10:57:39.251Z,1011.20
2022-08-25T10:58:39.282Z,1011.14
2022-08-25T10:59:39.245Z,1011.15
2022-08-25T11:00:40.404Z,1011.11
2022-08-25T11:01:43.934Z,1011.12
2022-08-25T11:02:41.389Z,1011.10
2022-08-25T11:03:39.234Z,1011.13
2022-08-25T11:04:39.269Z,1011.16
2022-08-25T11:05:39.245Z,1011.10
2022-08-25T11:06:39.215Z,1011.10
2022-08-25T11:07:39.213Z,1011.10
2022-08-25T11:08:39.207Z,1011.09
2022-08-25T11:09:39.214Z,1011.07
2022-08-25T11:10:39.221Z,1011.08
2022-08-25T11:11:39.194Z,1011.06
2022-08-25T11:12:39.187Z,1011.10
2022-08-25T11:13:39.184Z,1011.10
2022-08-25T11:14:39.199Z,1011.04
2022-08-25T11:15:41.444Z,1011.08
2022-08-25T11:16:39.309Z,1011.02
2022-08-25T11:17:39.183Z,1011.01
2022-08-25T11:18:39.163Z,1010.98
2022-08-25T11:19:39.173Z,1010.95
2022-08-25T11:20:39.171Z,1010.92
2022-08-25T11:21:39.150Z,1010.92
2022-08-25T11:22:39.164Z,1010.89
2022-08-25T11:23:39.140Z,1010.88
2022-08-25T11:24:39.149Z,1010.88
2022-08-25T11:25:39.130Z,1010.86
2022-08-25T11:26:39.127Z,1010.89
2022-08-25T11:27:39.139Z,1010.94
2022-08-25T11:28:39.123Z,1010.94
2022-08-25T11:29:39.539Z,1010.92
2022-08-25T11:30:39.232Z,1010.91
2022-08-25T11:31:39.117Z,1010.94
2022-08-25T11:32:39.103Z,1010.89
2022-08-25T11:33:39.104Z,1010.87
2022-08-25T11:34:42.435Z,1010.89
2022-08-25T11:35:39.108Z,1010.92
2022-08-25T11:36:39.099Z,1010.86
2022-08-25T11:37:39.086Z,1010.87
2022-08-25T11:38:39.070Z,1010.85
2022-08-25T11:39:39.063Z,1010.83
2022-08-25T11:40:39.082Z,1010.86
2022-08-25T11:41:39.062Z,1010.82
2022-08-25T11:42:39.054Z,1010.81
2022-08-25T11:43:40.615Z,1010.77
2022-08-25T11:44:39.038Z,1010.77
2022-08-25T11:45:39.056Z,1010.74
2022-08-25T11:46:39.050Z,1010.73
2022-08-25T11:47:39.033Z,1010.73
2022-08-25T11:48:39.016Z,1010.65
2022-08-25T11:49:39.003Z,1010.64
2022-08-25T11:50:39.019Z,1010.67
2022-08-25T11:51:39.015Z,1010.69
2022-08-25T11:52:38.999Z,1010.67
2022-08-25T11:53:38.991Z,1010.72
2022-08-25T11:54:38.976Z,1010.68
2022-08-25T11:55:38.967Z,1010.72
2022-08-25T11:56:40.263Z,1010.72
2022-08-25T11:57:38.973Z,1010.70
2022-08-25T11:58:38.946Z,1010.72
2022-08-25T11:59:38.943Z,1010.73
2022-08-25T12:00:38.935Z,1010.72
2022-08-25T12:01:38.927Z,1010.68
2022-08-25T12:02:38.934Z,1010.61
2022-08-25T12:03:38.950Z,1010.64
2022-08-25T12:04:44.738Z,1010.60
2022-08-25T12:05:38.942Z,1010.61